Time;durP1;ratioP1;P1;durP2;ratioP2;P2;SDS_P1;SDS_P2;PMS_P1;PMS_P2;Temp;Humidity;BMP_temperature;BMP_pressure;BME280_temperature;BME280_humidity;BME280_pressure;Samples;Min_cycle;Max_cycle;Signal;HPM_P1;HPM_P2
2023/04/06 00:00:14;;;;;;;13.95;4.55;;;;;;;13.14;100.00;101151.53;2078170;28;20082;-73
2023/04/06 00:01:36;;;;;;;13.20;4.55;;;;;;;13.19;100.00;101153.38;2072590;28;20057;-73
2023/04/06 00:03:01;;;;;;;14.27;4.60;;;;;;;13.22;100.00;101150.72;2070483;28;20045;-74
2023/04/06 00:04:23;;;;;;;9.88;4.05;;;;;;;13.27;100.00;101149.00;2076658;28;20053;-74
2023/04/06 00:05:46;;;;;;;14.07;4.13;;;;;;;13.30;100.00;101155.25;2077844;28;20050;-74
2023/04/06 00:07:07;;;;;;;10.07;3.83;;;;;;;13.33;100.00;101154.38;2078306;28;20157;-74
2023/04/06 00:08:30;;;;;;;9.15;3.90;;;;;;;13.36;100.00;101159.72;2071914;28;20060;-74
2023/04/06 00:09:52;;;;;;;12.32;4.93;;;;;;;13.37;100.00;101149.16;2075405;28;20107;-74
2023/04/06 00:11:16;;;;;;;11.95;4.30;;;;;;;13.39;100.00;101146.53;2077343;28;20080;-74
2023/04/06 00:12:37;;;;;;;12.68;4.32;;;;;;;13.41;100.00;101137.69;2078208;28;20072;-74
2023/04/06 00:14:00;;;;;;;12.18;4.93;;;;;;;13.45;100.00;101138.63;2077906;28;20049;-74
2023/04/06 00:15:24;;;;;;;14.05;4.68;;;;;;;13.46;100.00;101137.72;2071900;28;20144;-74
2023/04/06 00:16:46;;;;;;;11.75;4.07;;;;;;;13.47;100.00;101137.75;2070215;28;20054;-74
2023/04/06 00:18:08;;;;;;;10.73;4.40;;;;;;;13.48;100.00;101142.19;2071160;28;20085;-74
2023/04/06 00:19:30;;;;;;;10.93;4.15;;;;;;;13.50;100.00;101147.50;2068182;28;20041;-74
2023/04/06 00:20:52;;;;;;;10.98;3.92;;;;;;;13.51;100.00;101144.88;2074929;28;20049;-74
2023/04/06 00:22:13;;;;;;;10.82;4.10;;;;;;;13.53;100.00;101144.88;2076130;28;20512;-75
2023/04/06 00:23:36;;;;;;;13.23;4.63;;;;;;;13.54;100.00;101147.53;2077198;28;20042;-74
2023/04/06 00:24:57;;;;;;;13.88;5.50;;;;;;;13.57;100.00;101147.59;2077983;28;20085;-74
2023/04/06 00:26:20;;;;;;;11.75;3.97;;;;;;;13.59;100.00;101144.06;2071781;28;20054;-74
2023/04/06 00:27:44;;;;;;;10.90;3.50;;;;;;;13.60;100.00;101144.06;2070129;28;20603;-73
2023/04/06 00:29:05;;;;;;;11.88;3.60;;;;;;;13.60;100.00;101138.75;2072338;28;20148;-73
2023/04/06 00:30:29;;;;;;;14.55;4.57;;;;;;;13.60;100.00;101141.41;2076225;28;20495;-73
2023/04/06 00:31:50;;;;;;;11.15;3.15;;;;;;;13.61;100.00;101145.84;2076002;28;20045;-73
2023/04/06 00:33:13;;;;;;;14.25;3.30;;;;;;;13.63;100.00;101146.75;2061605;28;20085;-73
2023/04/06 00:34:34;;;;;;;13.13;3.88;;;;;;;13.65;100.00;101146.78;2065762;28;20521;-73
2023/04/06 00:35:57;;;;;;;9.57;2.80;;;;;;;13.66;100.00;101145.88;2076574;28;20147;-73
2023/04/06 00:37:19;;;;;;;13.07;3.97;;;;;;;13.69;100.00;101143.25;2073760;28;20041;-73
2023/04/06 00:38:41;;;;;;;11.77;3.30;;;;;;;13.72;100.00;101148.59;2068499;28;20049;-73
2023/04/06 00:40:05;;;;;;;13.77;3.65;;;;;;;13.74;100.00;101141.53;2078106;28;20140;-73
2023/04/06 00:41:27;;;;;;;9.75;3.65;;;;;;;13.77;100.00;101139.81;2068507;28;20077;-73
2023/04/06 00:42:50;;;;;;;14.90;3.40;;;;;;;13.79;100.00;101146.00;2064497;28;20034;-73
2023/04/06 00:44:11;;;;;;;11.55;3.30;;;;;;;13.81;100.00;101140.69;2081818;28;20049;-74
2023/04/06 00:45:35;;;;;;;11.15;3.28;;;;;;;13.83;100.00;101145.16;2064008;28;20070;-74
2023/04/06 00:46:57;;;;;;;12.68;3.40;;;;;;;13.84;100.00;101143.41;2067507;28;20053;-73
2023/04/06 00:48:19;;;;;;;12.18;3.90;;;;;;;13.86;100.00;101146.94;2067909;28;20049;-74
2023/04/06 00:49:42;;;;;;;15.43;3.40;;;;;;;13.85;100.00;101145.16;2065305;28;20045;-73
2023/04/06 00:51:03;;;;;;;16.23;3.67;;;;;;;13.83;100.00;101145.16;2066016;28;20077;-73
2023/04/06 00:52:26;;;;;;;11.43;3.35;;;;;;;13.83;100.00;101146.91;2072403;28;20068;-74
2023/04/06 00:53:50;;;;;;;15.32;3.70;;;;;;;13.81;100.00;101148.66;2066776;28;20091;-74
2023/04/06 00:55:11;;;;;;;11.70;3.28;;;;;;;13.79;100.00;101142.44;2074999;28;20046;-74
2023/04/06 00:56:37;;;;;;;10.43;3.75;;;;;;;13.77;100.00;101142.47;2070079;28;20045;-74
2023/04/06 00:58:01;;;;;;;11.55;3.10;;;;;;;13.75;100.00;101133.59;2072906;28;20057;-73
2023/04/06 00:59:24;;;;;;;13.77;3.55;;;;;;;13.72;100.00;101128.25;2065786;28;20088;-74
2023/04/06 01:00:50;;;;;;;16.90;3.28;;;;;;;13.70;100.00;101124.72;2066059;28;20064;-74
2023/04/06 01:02:14;;;;;;;11.15;3.33;;;;;;;13.69;100.00;101127.34;2074527;28;20517;-74
2023/04/06 01:03:44;;;;;;;11.15;2.47;;;;;;;13.67;100.00;101123.78;2069968;28;20054;-74
2023/04/06 01:05:10;;;;;;;13.25;3.20;;;;;;;13.68;100.00;101122.91;2074799;28;20194;-74
2023/04/06 01:06:52;;;;;;;11.32;3.70;;;;;;;13.65;100.00;101121.13;2079374;28;20056;-74
2023/04/06 01:08:22;;;;;;;14.70;4.65;;;;;;;13.61;100.00;101124.59;2070592;28;20054;-74
2023/04/06 01:09:48;;;;;;;15.93;7.68;;;;;;;13.55;100.00;101122.78;2064229;28;20062;-74
2023/04/06 01:11:17;;;;;;;11.50;4.25;;;;;;;13.48;100.00;101118.31;2076740;28;20052;-74
2023/04/06 01:12:40;;;;;;;14.50;4.70;;;;;;;13.48;100.00;101138.63;2069390;28;20050;-74
2023/04/06 01:14:10;;;;;;;11.38;3.60;;;;;;;13.48;100.00;101139.53;2066998;28;20037;-74
2023/04/06 01:15:50;;;;;;;15.93;5.28;;;;;;;13.52;100.00;101146.63;2070545;28;20058;-74
2023/04/06 01:17:20;;;;;;;17.38;5.93;;;;;;;13.53;100.00;101145.75;2064198;28;20133;-73
2023/04/06 01:18:42;;;;;;;14.00;4.28;;;;;;;13.54;100.00;101130.72;2067000;28;20073;-73
2023/04/06 01:20:10;;;;;;;10.20;3.88;;;;;;;13.57;100.00;101126.38;2067629;28;20054;-73
2023/04/06 01:21:32;;;;;;;14.43;3.72;;;;;;;13.58;100.00;101121.94;2065420;28;20053;-73
2023/04/06 01:23:19;;;;;;;15.93;3.80;;;;;;;13.57;100.00;101106.91;2071527;28;20125;-73
2023/04/06 01:24:44;;;;;;;12.38;3.92;;;;;;;13.57;100.00;101101.59;2063836;28;20050;-73
2023/04/06 01:26:10;;;;;;;14.55;4.22;;;;;;;13.55;100.00;101113.94;2067988;28;20050;-73
2023/04/06 01:27:34;;;;;;;12.95;4.07;;;;;;;13.53;100.00;101116.56;2076830;28;20112;-74
2023/04/06 01:29:12;;;;;;;11.98;4.07;;;;;;;13.50;100.00;101108.63;2066089;28;20061;-73
2023/04/06 01:30:35;;;;;;;17.52;4.47;;;;;;;13.49;100.00;101117.44;2064580;28;20579;-73
2023/04/06 01:32:05;;;;;;;11.82;4.32;;;;;;;13.47;100.00;101116.53;2067826;28;20066;-74
2023/04/06 01:33:31;;;;;;;11.23;4.07;;;;;;;13.45;100.00;101120.94;2066066;28;20066;-73
2023/04/06 01:35:02;;;;;;;15.50;4.47;;;;;;;13.45;100.00;101107.69;2078498;28;20049;-73
2023/04/06 01:36:24;;;;;;;11.13;4.70;;;;;;;13.42;100.00;101110.28;2068982;28;20056;-73
2023/04/06 01:38:14;;;;;;;8.77;4.63;;;;;;;13.25;100.00;101108.38;2079642;28;20179;-73
2023/04/06 01:39:38;;;;;;;10.57;4.30;;;;;;;13.04;100.00;101098.38;2069238;28;20516;-74
2023/04/06 01:41:01;;;;;;;9.88;4.97;;;;;;;12.88;100.00;101104.38;2061737;28;20141;-73
2023/04/06 01:42:30;;;;;;;12.43;7.00;;;;;;;12.78;100.00;101095.44;2069235;28;20041;-73
2023/04/06 01:43:54;;;;;;;15.00;10.88;;;;;;;12.76;100.00;101103.34;2064704;28;20034;-74
2023/04/06 01:45:18;;;;;;;18.38;11.75;;;;;;;12.81;100.00;101105.16;2067832;28;20058;-74
2023/04/06 01:46:42;;;;;;;14.77;8.23;;;;;;;12.88;100.00;101104.38;2082237;28;20071;-73
2023/04/06 01:48:05;;;;;;;12.63;5.95;;;;;;;12.95;100.00;101095.63;2071099;28;20588;-73
2023/04/06 01:49:27;;;;;;;11.43;6.18;;;;;;;13.00;100.00;101096.56;2066682;28;20049;-73
2023/04/06 01:50:51;;;;;;;11.88;4.00;;;;;;;13.03;100.00;101105.44;2064831;28;20088;-73
2023/04/06 01:52:19;;;;;;;15.18;6.55;;;;;;;13.04;100.00;101104.56;2062027;28;20049;-73
2023/04/06 01:53:48;;;;;;;8.60;4.47;;;;;;;12.98;100.00;101109.81;2067685;28;20058;-73
2023/04/06 01:55:11;;;;;;;14.40;7.45;;;;;;;12.91;100.00;101105.31;2065779;28;20034;-73
2023/04/06 01:57:03;;;;;;;12.63;5.33;;;;;;;12.78;100.00;101101.63;2074783;28;20453;-73
2023/04/06 01:58:46;;;;;;;12.75;6.20;;;;;;;12.72;100.00;101098.91;2079106;28;20318;-74
2023/04/06 02:00:11;;;;;;;11.65;5.95;;;;;;;12.73;100.00;101095.34;2072470;28;20069;-73
2023/04/06 02:01:39;;;;;;;14.80;6.43;;;;;;;12.71;100.00;101099.78;2069169;28;20178;-73
2023/04/06 02:03:00;;;;;;;18.65;8.02;;;;;;;12.72;100.00;101095.38;2066731;28;20057;-73
2023/04/06 02:04:25;;;;;;;17.35;7.78;;;;;;;12.73;100.00;101095.34;2065855;28;20130;-73
2023/04/06 02:05:55;;;;;;;16.40;7.63;;;;;;;12.74;100.00;101086.53;2068462;28;20053;-74
2023/04/06 02:07:24;;;;;;;11.20;5.05;;;;;;;12.73;100.00;101084.75;2069354;28;20066;-73
2023/04/06 02:08:47;;;;;;;11.70;4.57;;;;;;;12.72;100.00;101084.78;2074638;28;20100;-73
2023/04/06 02:10:15;;;;;;;9.77;4.40;;;;;;;12.68;100.00;101088.22;2069078;28;20533;-73
2023/04/06 02:11:37;;;;;;;10.80;3.97;;;;;;;12.64;100.00;101081.13;2076052;28;20164;-73
2023/04/06 02:13:00;;;;;;;10.70;4.57;;;;;;;12.64;100.00;101092.63;2077040;28;20053;-73
2023/04/06 02:14:25;;;;;;;10.68;3.83;;;;;;;12.68;100.00;101090.88;2069161;28;20149;-73
2023/04/06 02:15:52;;;;;;;9.10;3.88;;;;;;;12.67;100.00;101092.63;2076419;28;20041;-73
2023/04/06 02:17:15;;;;;;;8.63;3.85;;;;;;;12.70;100.00;101095.34;2069017;28;20050;-73
2023/04/06 02:18:38;;;;;;;9.40;4.30;;;;;;;12.75;100.00;101090.97;2067885;28;20069;-73
2023/04/06 02:19:59;;;;;;;13.63;4.82;;;;;;;12.83;100.00;101091.06;2066213;28;20049;-73
2023/04/06 02:21:21;;;;;;;15.27;4.35;;;;;;;12.88;100.00;101089.34;2074238;28;20060;-73
2023/04/06 02:22:43;;;;;;;12.98;4.30;;;;;;;12.93;100.00;101100.03;2071893;28;20478;-73
2023/04/06 02:24:06;;;;;;;15.43;3.92;;;;;;;12.98;100.00;101093.00;2063424;28;20042;-73
2023/04/06 02:25:29;;;;;;;12.15;4.18;;;;;;;13.04;100.00;101093.09;2061016;28;20278;-73
2023/04/06 02:26:51;;;;;;;11.85;3.58;;;;;;;13.07;100.00;101086.03;2058791;28;20046;-74
2023/04/06 02:28:14;;;;;;;14.45;3.92;;;;;;;13.12;100.00;101088.75;2060952;28;20042;-73
2023/04/06 02:29:35;;;;;;;11.73;3.17;;;;;;;13.14;100.00;101093.22;2074243;28;20476;-73
2023/04/06 02:31:00;;;;;;;9.23;3.63;;;;;;;13.18;100.00;101083.56;2071774;28;20046;-74
2023/04/06 02:32:22;;;;;;;11.30;3.50;;;;;;;13.21;100.00;101086.22;2064099;28;20056;-74
2023/04/06 02:33:45;;;;;;;;;;;;;;;13.22;100.00;101084.47;2066512;28;20061;-74
2023/04/06 02:35:08;;;;;;;9.05;3.25;;;;;;;13.23;100.00;101078.28;2066111;28;19925;-73
2023/04/06 02:36:31;;;;;;;10.07;3.17;;;;;;;13.25;100.00;101077.44;2065102;28;20193;-73
2023/04/06 02:37:52;;;;;;;13.05;3.53;;;;;;;13.26;100.00;101073.88;2072828;28;20042;-74
2023/04/06 02:39:16;;;;;;;11.00;3.20;;;;;;;13.28;100.00;101077.44;2069077;28;20042;-74
2023/04/06 02:40:40;;;;;;;10.60;2.67;;;;;;;13.31;100.00;101076.59;2065478;28;20545;-73
2023/04/06 02:42:12;;;;;;;12.30;2.85;;;;;;;13.31;100.00;101072.19;2065535;28;20080;-73
2023/04/06 02:43:35;;;;;;;12.85;3.40;;;;;;;13.34;100.00;101066.00;2061079;28;20537;-73
2023/04/06 02:45:09;;;;;;;8.05;2.42;;;;;;;13.35;100.00;101062.47;2069198;28;20371;-73
2023/04/06 02:46:38;;;;;;;9.15;2.60;;;;;;;13.37;100.00;101059.00;2067105;28;20468;-73
2023/04/06 02:48:01;;;;;;;8.07;2.67;;;;;;;13.39;100.00;101062.53;2066059;28;20049;-73
2023/04/06 02:49:23;;;;;;;9.45;3.08;;;;;;;13.40;100.00;101056.34;2064496;28;20454;-73
2023/04/06 02:50:48;;;;;;;11.18;2.58;;;;;;;13.40;100.00;101051.03;2065053;28;20142;-73
2023/04/06 02:52:11;;;;;;;12.43;2.67;;;;;;;13.41;100.00;101054.59;2072362;28;20546;-73
2023/04/06 02:53:33;;;;;;;13.45;3.25;;;;;;;13.40;100.00;101051.03;2069238;28;20455;-73
2023/04/06 02:54:55;;;;;;;10.20;2.83;;;;;;;13.38;100.00;101047.50;2065971;28;20387;-73
2023/04/06 02:56:24;;;;;;;9.38;2.30;;;;;;;13.36;100.00;101054.56;2069062;28;20375;-73
2023/04/06 02:57:46;;;;;;;12.23;2.78;;;;;;;13.34;100.00;101053.63;2061235;28;20073;-73
2023/04/06 02:59:09;;;;;;;10.13;2.70;;;;;;;13.33;100.00;101053.63;2068281;28;20057;-73
2023/04/06 03:00:32;;;;;;;11.57;2.83;;;;;;;13.30;100.00;101051.84;2065836;28;20536;-74
2023/04/06 03:01:53;;;;;;;12.10;2.80;;;;;;;13.28;100.00;101048.28;2064545;28;20520;-73
2023/04/06 03:03:16;;;;;;;8.05;2.58;;;;;;;13.24;100.00;101059.75;2075562;28;20049;-74
2023/04/06 03:04:38;;;;;;;12.45;2.80;;;;;;;13.22;100.00;101063.25;2067238;28;20436;-73
2023/04/06 03:06:07;;;;;;;9.88;2.85;;;;;;;13.21;100.00;101069.41;2061143;28;20149;-73
2023/04/06 03:07:28;;;;;;;10.25;2.75;;;;;;;13.18;100.00;101072.94;2075602;28;20096;-73
2023/04/06 03:08:51;;;;;;;13.45;3.25;;;;;;;13.17;100.00;101068.50;2070487;28;20048;-74
2023/04/06 03:10:12;;;;;;;11.40;2.70;;;;;;;13.16;100.00;101069.38;2067654;28;20058;-73
2023/04/06 03:11:36;;;;;;;12.32;2.72;;;;;;;13.14;100.00;101063.16;2065825;28;20043;-74
2023/04/06 03:12:58;;;;;;;11.45;2.70;;;;;;;13.12;100.00;101065.81;2067197;28;20041;-74
2023/04/06 03:14:34;;;;;;;10.65;3.42;;;;;;;13.10;100.00;101070.19;2071834;28;20046;-74
2023/04/06 03:15:58;;;;;;;7.13;2.63;;;;;;;13.09;100.00;101059.56;2069651;28;20049;-74
2023/04/06 03:17:21;;;;;;;12.50;3.00;;;;;;;13.07;100.00;101066.59;2062711;28;20042;-73
2023/04/06 03:18:44;;;;;;;11.23;2.63;;;;;;;13.06;100.00;101075.44;2066898;28;20573;-73
2023/04/06 03:20:08;;;;;;;15.43;5.78;;;;;;;13.06;100.00;101072.78;2081344;28;20564;-74
2023/04/06 03:21:31;;;;;;;13.85;5.43;;;;;;;13.04;100.00;101071.88;2081160;28;20076;-74
2023/04/06 03:22:52;;;;;;;10.68;4.22;;;;;;;13.03;100.00;101072.75;2067715;28;20070;-74
2023/04/06 03:24:22;;;;;;;13.10;4.60;;;;;;;13.00;100.00;101081.53;2068740;28;20046;-74
2023/04/06 03:25:43;;;;;;;12.57;4.07;;;;;;;12.99;100.00;101079.78;2075892;28;20560;-74
2023/04/06 03:27:11;;;;;;;10.63;3.30;;;;;;;12.98;100.00;101078.00;2077488;28;20575;-73
2023/04/06 03:28:33;;;;;;;10.70;3.70;;;;;;;12.98;100.00;101074.47;2068274;28;20049;-74
2023/04/06 03:29:59;;;;;;;11.35;3.13;;;;;;;13.00;100.00;101072.69;2072823;28;20077;-74
2023/04/06 03:31:27;;;;;;;10.30;3.00;;;;;;;13.01;100.00;101064.78;2078258;28;20053;-73
2023/04/06 03:32:55;;;;;;;8.82;2.80;;;;;;;13.03;100.00;101067.44;2067888;28;20077;-73
2023/04/06 03:34:20;;;;;;;10.05;3.33;;;;;;;13.04;100.00;101064.81;2070232;28;20145;-73
2023/04/06 03:35:41;;;;;;;10.70;2.60;;;;;;;13.04;100.00;101058.63;2069594;28;20056;-73
2023/04/06 03:37:04;;;;;;;8.65;2.58;;;;;;;13.04;100.00;101056.88;2077623;28;20553;-73
2023/04/06 03:38:25;;;;;;;11.25;3.22;;;;;;;13.06;100.00;101059.53;2063609;28;20574;-73
2023/04/06 03:39:49;;;;;;;8.85;2.63;;;;;;;13.07;100.00;101054.22;2066106;28;21522;-73
2023/04/06 03:41:16;;;;;;;10.57;2.70;;;;;;;13.09;100.00;101049.84;2067144;28;20049;-73
2023/04/06 03:42:47;;;;;;;13.65;2.63;;;;;;;13.13;100.00;101059.63;2068291;28;20521;-73
2023/04/06 03:44:09;;;;;;;8.82;2.85;;;;;;;13.15;100.00;101054.34;2078607;28;20045;-72
2023/04/06 03:45:33;;;;;;;8.98;3.00;;;;;;;13.17;100.00;101052.59;2069287;28;20159;-74
2023/04/06 03:46:56;;;;;;;8.57;2.67;;;;;;;13.18;100.00;101049.09;2076451;28;20084;-72
2023/04/06 03:48:18;;;;;;;8.88;2.45;;;;;;;13.21;100.00;101046.44;2072709;28;20492;-73
2023/04/06 03:49:41;;;;;;;11.48;2.75;;;;;;;13.23;100.00;101036.75;2062221;28;20045;-73
2023/04/06 03:51:05;;;;;;;11.75;2.53;;;;;;;13.23;100.00;101039.41;2062494;28;20077;-74
2023/04/06 03:52:28;;;;;;;8.35;2.47;;;;;;;13.25;100.00;101040.31;2071909;28;20061;-73
2023/04/06 03:53:51;;;;;;;9.18;2.53;;;;;;;13.25;100.00;101040.31;2078145;28;20133;-73
2023/04/06 03:55:12;;;;;;;8.30;2.53;;;;;;;13.24;100.00;101041.19;2066601;28;20101;-73
2023/04/06 03:56:34;;;;;;;10.23;2.58;;;;;;;13.24;100.00;101037.66;2078015;28;20444;-73
2023/04/06 03:57:58;;;;;;;10.38;2.55;;;;;;;13.24;100.00;101032.34;2080444;28;20046;-74
2023/04/06 03:59:20;;;;;;;11.02;2.85;;;;;;;13.23;100.00;101036.75;2064446;28;20063;-74
2023/04/06 04:00:42;;;;;;;7.65;2.55;;;;;;;13.22;100.00;101034.97;2066098;28;20062;-73
2023/04/06 04:02:03;;;;;;;9.90;3.20;;;;;;;13.22;100.00;101042.03;2069963;28;20352;-74
2023/04/06 04:03:27;;;;;;;12.02;2.97;;;;;;;13.22;100.00;101048.22;2070135;28;20116;-73
2023/04/06 04:04:49;;;;;;;11.57;2.47;;;;;;;13.21;100.00;101041.16;2079290;28;20049;-74
2023/04/06 04:06:12;;;;;;;9.50;2.50;;;;;;;13.21;100.00;101045.56;2080642;28;20069;-73
2023/04/06 04:07:35;;;;;;;8.50;2.40;;;;;;;13.20;100.00;101044.66;2064683;28;20046;-73
2023/04/06 04:08:57;;;;;;;9.95;2.70;;;;;;;13.19;100.00;101036.72;2067309;28;20048;-73
2023/04/06 04:10:19;;;;;;;6.38;2.40;;;;;;;13.17;100.00;101036.69;2080543;28;20050;-73
2023/04/06 04:11:42;;;;;;;7.25;2.55;;;;;;;13.17;100.00;101039.34;2067580;28;20297;-73
2023/04/06 04:13:05;;;;;;;8.43;2.60;;;;;;;13.16;100.00;101040.22;2075693;28;20069;-73
2023/04/06 04:14:28;;;;;;;7.63;2.53;;;;;;;13.16;100.00;101040.22;2069115;28;20089;-72
2023/04/06 04:15:49;;;;;;;9.90;2.70;;;;;;;13.14;100.00;101037.56;2067390;28;20053;-73
2023/04/06 04:17:12;;;;;;;10.27;2.50;;;;;;;13.14;100.00;101031.34;2066478;28;20046;-73
2023/04/06 04:18:33;;;;;;;10.93;2.50;;;;;;;13.13;100.00;101025.16;2066966;28;20096;-73
2023/04/06 04:19:56;;;;;;;10.32;2.42;;;;;;;13.13;100.00;101024.28;2067116;28;20116;-73
2023/04/06 04:21:17;;;;;;;9.82;3.15;;;;;;;13.13;100.00;101027.81;2077752;28;20056;-74
2023/04/06 04:22:40;;;;;;;10.55;2.53;;;;;;;13.15;100.00;101033.13;2064343;28;20086;-74
2023/04/06 04:24:02;;;;;;;8.98;2.50;;;;;;;13.16;100.00;101030.50;2063917;28;20502;-74
2023/04/06 04:25:25;;;;;;;11.75;2.50;;;;;;;13.18;100.00;101030.53;2069564;28;20702;-73
2023/04/06 04:26:47;;;;;;;10.02;2.45;;;;;;;13.20;100.00;101034.06;2061555;28;20526;-74
2023/04/06 04:28:12;;;;;;;8.35;2.70;;;;;;;13.20;100.00;101031.41;2064121;28;20038;-73
2023/04/06 04:29:37;;;;;;;8.55;2.30;;;;;;;13.22;100.00;101036.75;2067969;28;20470;-74
2023/04/06 04:31:03;;;;;;;12.30;2.53;;;;;;;13.23;100.00;101027.91;2069100;28;20649;-75
2023/04/06 04:32:29;;;;;;;8.70;2.30;;;;;;;13.26;100.00;101028.81;2066213;28;20072;-74
2023/04/06 04:33:54;;;;;;;9.05;2.38;;;;;;;13.26;100.00;101026.16;2073986;28;20417;-73
2023/04/06 04:35:21;;;;;;;5.07;1.98;;;;;;;13.26;100.00;101026.16;2077422;28;20087;-74
2023/04/06 04:36:43;;;;;;;13.88;2.70;;;;;;;13.26;100.00;101030.59;2068545;28;20093;-73
2023/04/06 04:38:10;;;;;;;10.75;2.53;;;;;;;13.26;100.00;101027.97;2070594;28;20045;-73
2023/04/06 04:39:35;;;;;;;7.75;2.67;;;;;;;13.28;100.00;101035.03;2066403;28;20046;-74
2023/04/06 04:41:02;;;;;;;9.05;2.78;;;;;;;13.37;100.00;101035.13;2067863;28;20049;-74
2023/04/06 04:42:25;;;;;;;9.27;2.50;;;;;;;13.44;100.00;101036.06;2069273;28;20061;-74
2023/04/06 04:43:50;;;;;;;9.05;2.67;;;;;;;13.55;100.00;101037.03;2066831;28;20037;-74
2023/04/06 04:45:17;;;;;;;7.03;2.10;;;;;;;13.66;100.00;101042.41;2067924;28;20742;-74
2023/04/06 04:46:39;;;;;;;8.15;2.08;;;;;;;13.77;100.00;101035.44;2069174;28;20076;-74
2023/04/06 04:48:04;;;;;;;10.93;2.22;;;;;;;13.88;100.00;101028.41;2066454;28;20059;-73
2023/04/06 04:49:34;;;;;;;6.70;1.80;;;;;;;14.03;100.00;101031.19;2069361;28;20048;-74
2023/04/06 04:50:56;;;;;;;11.25;2.30;;;;;;;14.14;100.00;101026.81;2066614;28;20093;-73
2023/04/06 04:52:23;;;;;;;8.98;1.95;;;;;;;14.28;100.00;101021.56;2067930;28;20438;-72
2023/04/06 04:53:57;;;;;;;6.75;1.92;;;;;;;14.42;100.00;101019.00;2075444;28;20111;-73
2023/04/06 04:55:23;;;;;;;8.80;2.28;;;;;;;14.55;100.00;101018.16;2070209;28;20056;-73
2023/04/06 04:56:50;;;;;;;6.45;2.08;;;;;;;14.66;100.00;101006.69;2069925;28;20637;-73
2023/04/06 04:58:26;;;;;;;11.30;2.00;;;;;;;14.80;100.00;101011.16;2069614;28;20058;-73
2023/04/06 04:59:56;;;;;;;8.02;1.88;;;;;;;14.95;100.00;100996.13;2070012;28;20069;-73
2023/04/06 05:01:17;;;;;;;8.98;1.80;;;;;;;15.09;100.00;100996.16;2077413;28;20107;-73
2023/04/06 05:02:41;;;;;;;7.55;2.08;;;;;;;15.20;100.00;100993.47;2067293;28;20509;-73
2023/04/06 05:04:21;;;;;;;13.02;2.30;;;;;;;15.32;100.00;100988.16;2069930;28;20188;-73
2023/04/06 05:05:42;;;;;;;10.55;2.47;;;;;;;15.41;100.00;100988.16;2074694;28;20064;-73
2023/04/06 05:07:06;;;;;;;7.20;1.80;;;;;;;15.48;100.00;100984.63;2072360;28;20128;-73
2023/04/06 05:08:30;;;;;;;12.18;2.53;;;;;;;15.54;100.00;100971.34;2065924;28;20075;-72
2023/04/06 05:09:52;;;;;;;13.13;2.15;;;;;;;15.62;100.00;100971.34;2069195;28;20136;-72
2023/04/06 05:11:16;;;;;;;12.10;2.50;;;;;;;15.70;100.00;100970.41;2065591;28;20058;-73
2023/04/06 05:12:42;;;;;;;10.02;2.00;;;;;;;15.79;100.00;100975.72;2079910;28;20127;-73
2023/04/06 05:14:06;;;;;;;12.77;2.42;;;;;;;15.89;100.00;100965.91;2075887;28;20045;-73
2023/04/06 05:15:30;;;;;;;13.60;2.70;;;;;;;16.00;100.00;100972.13;2066840;28;20038;-73
2023/04/06 05:17:01;;;;;;;12.55;2.30;;;;;;;16.09;100.00;100971.19;2068933;28;20054;-72
2023/04/06 05:18:23;;;;;;;14.88;2.67;;;;;;;16.17;100.00;100966.72;2067524;28;20453;-73
2023/04/06 05:19:46;;;;;;;12.27;2.58;;;;;;;16.26;100.00;100956.03;2073816;28;20503;-73
2023/04/06 05:21:13;;;;;;;10.07;2.20;;;;;;;16.32;100.00;100974.66;2068807;28;20053;-73
2023/04/06 05:22:47;;;;;;;11.27;2.67;;;;;;;16.38;100.00;100976.41;2071390;28;20054;-73
2023/04/06 05:24:11;;;;;;;9.65;2.28;;;;;;;16.45;100.00;100970.16;2074355;28;20107;-73
2023/04/06 05:25:34;;;;;;;13.00;2.03;;;;;;;16.51;100.00;100978.13;2070023;28;20058;-72
2023/04/06 05:27:07;;;;;;;12.60;2.70;;;;;;;16.55;100.00;100978.06;2071350;28;20410;-72
2023/04/06 05:28:30;;;;;;;15.00;3.25;;;;;;;16.61;100.00;100972.75;2066373;28;20050;-73
2023/04/06 05:29:51;;;;;;;13.05;3.55;;;;;;;16.64;100.00;100972.75;2066677;28;20046;-73
2023/04/06 05:31:16;;;;;;;15.52;3.47;;;;;;;16.70;100.00;100972.69;2065809;28;20049;-72
2023/04/06 05:32:44;;;;;;;17.27;3.15;;;;;;;16.74;100.00;100978.88;2068519;28;20042;-73
2023/04/06 05:34:09;;;;;;;14.43;2.78;;;;;;;16.80;100.00;100970.00;2063326;28;20065;-73
2023/04/06 05:35:32;;;;;;;14.25;4.05;;;;;;;16.85;100.00;100968.16;2064224;28;20046;-73
2023/04/06 05:37:03;;;;;;;15.52;3.65;;;;;;;16.88;100.00;100974.34;2067039;28;20046;-73
2023/04/06 05:38:24;;;;;;;13.75;3.42;;;;;;;16.91;100.00;100970.78;2082578;28;20052;-73
2023/04/06 05:39:51;;;;;;;13.18;3.30;;;;;;;16.94;100.00;100968.09;2063655;28;20560;-73
2023/04/06 05:41:13;;;;;;;12.07;3.08;;;;;;;16.99;100.00;100976.97;2066682;28;20046;-73
2023/04/06 05:42:38;;;;;;;16.02;4.93;;;;;;;17.07;100.00;100965.31;2069131;28;20107;-73
2023/04/06 05:44:01;;;;;;;15.77;3.97;;;;;;;17.11;100.00;100963.53;2069704;28;20532;-73
2023/04/06 05:45:24;;;;;;;9.95;3.33;;;;;;;17.16;100.00;100968.81;2078616;28;20133;-73
2023/04/06 05:46:53;;;;;;;14.93;3.63;;;;;;;17.21;100.00;100961.66;2071870;28;20057;-73
2023/04/06 05:48:14;;;;;;;11.13;3.17;;;;;;;17.24;100.00;100970.53;2066851;28;20485;-73
2023/04/06 05:49:37;;;;;;;13.27;3.75;;;;;;;17.27;100.00;100966.94;2069665;28;20053;-72
2023/04/06 05:51:06;;;;;;;13.65;3.47;;;;;;;17.31;100.00;100969.59;2077048;28;20092;-73
2023/04/06 05:52:35;;;;;;;;;;;;;;;17.34;100.00;100976.66;2063397;28;20046;-72
2023/04/06 05:53:57;;;;;;;12.68;3.35;;;;;;;17.39;100.00;100956.19;2067808;28;20401;-73
2023/04/06 05:55:20;;;;;;;10.95;3.33;;;;;;;17.49;100.00;100952.50;2066804;28;20611;-73
2023/04/06 05:56:48;;;;;;;11.73;2.85;;;;;;;17.56;100.00;100954.22;2067519;28;20050;-73
2023/04/06 05:58:11;;;;;;;14.32;2.50;;;;;;;17.63;100.00;100960.41;2065495;28;20044;-72
2023/04/06 05:59:34;;;;;;;11.18;3.03;;;;;;;17.67;100.00;100965.72;2075260;28;20056;-72
2023/04/06 06:00:58;;;;;;;15.50;3.78;;;;;;;17.73;100.00;100952.28;2063004;28;20053;-73
2023/04/06 06:02:24;;;;;;;13.63;3.33;;;;;;;17.80;100.00;100958.44;2066552;28;20580;-72
2023/04/06 06:03:48;;;;;;;16.77;4.20;;;;;;;17.85;100.00;100953.97;2064417;28;20053;-73
2023/04/06 06:05:12;;;;;;;14.50;4.07;;;;;;;17.89;100.00;100951.22;2065510;28;20077;-73
2023/04/06 06:06:36;;;;;;;9.05;3.35;;;;;;;17.95;100.00;100944.94;2061946;28;20133;-73
2023/04/06 06:08:10;;;;;;;11.30;4.15;;;;;;;18.05;100.00;100943.06;2069764;28;20145;-72
2023/04/06 06:09:32;;;;;;;14.05;3.97;;;;;;;18.17;100.00;100937.56;2063815;28;20078;-73
2023/04/06 06:11:04;;;;;;;14.00;2.97;;;;;;;18.28;100.00;100941.84;2074490;28;20142;-73
2023/04/06 06:12:27;;;;;;;13.32;2.63;;;;;;;18.39;100.00;100944.38;2074987;28;20057;-73
2023/04/06 06:13:50;;;;;;;11.07;2.78;;;;;;;18.45;100.00;100964.78;2068943;28;20122;-73
2023/04/06 06:15:13;;;;;;;13.90;3.40;;;;;;;18.50;100.00;100946.91;2068141;28;20052;-73
2023/04/06 06:16:41;;;;;;;10.25;2.45;;;;;;;18.55;100.00;100940.63;2067484;28;20046;-72
2023/04/06 06:18:07;;;;;;;11.20;3.33;;;;;;;18.66;100.00;100927.09;2058542;28;20501;-73
2023/04/06 06:19:30;;;;;;;11.60;2.75;;;;;;;18.74;100.00;100924.28;2067041;28;20057;-73
2023/04/06 06:20:56;;;;;;;13.18;4.15;;;;;;;18.76;100.00;100903.78;2069693;28;20050;-73
2023/04/06 06:22:18;;;;;;;10.90;2.75;;;;;;;18.82;100.00;100907.22;2074479;28;20140;-73
2023/04/06 06:23:43;;;;;;;15.40;3.22;;;;;;;18.95;100.00;100914.16;2069319;28;20069;-73
2023/04/06 06:25:10;;;;;;;13.98;3.00;;;;;;;19.07;100.00;100919.28;2069344;28;20141;-74
2023/04/06 06:26:35;;;;;;;10.85;3.08;;;;;;;19.21;100.00;100904.78;2073882;28;20045;-74